Aérodrome :
LOGIN :

S'inscrire | Disclaimer

   EN    FR    IT 

 










Légende :    VFR   VFR Marginal   IFR   IFR Intensif   IFR Très Intensif
Visi : 
Plafond : 
>= 8 km
>= 3000ft
5 à 8 km
1000 à 3000 ft
1500m à 5 km
500 à 1000 ft
800 à 1500m
200 à 500 ft
< 800m
< 200 ft
Symboles :   Orages  Brouillard  Fortes neiges  Fortes précipitations  Vent > 20 kt
SIGMETs :   Divers  Orages  Givrage  Turbulence  Onde Orograph.  Cendres Volcan.






- Altitude de l'aérodrome : 1071 ft
- Code IATA : LWO


UKLL - L'viv

DERNIER METAR :
  • 151500Z 28004MPS 9999 BKN026 M07/M10 Q1014 R31/850530 NOSIG

METARs EXPIRÉS :
  • 151430Z 29004MPS 270V330 9999 BKN024 M06/M10 Q1014 R31/850530 NOSIG
  • 151400Z 28005MPS 260V320 9999 BKN023 M06/M10 Q1014 R31/850530 NOSIG
  • 151330Z 28005MPS 9999 BKN031 M06/M09 Q1013 R31/850530 NOSIG
  • 151300Z 29006MPS 260V320 9999 BKN030 M06/M11 Q1013 R31/850530 NOSIG
  • 151230Z 29005MPS 260V320 9999 BKN033 M06/M11 Q1013 R31/850530 NOSIG

TAF TAF UKLL
Valide du 15 à 12h jusqu'au 16 à 12h UTC


151105Z 1512/1612 31006G12MPS 9999 BKN015
TEMPO 1512/1612 33007G13MPS 2100 -SHSN BKN007 BKN025CB



MET'MAP, la Météo Aéronautique d'un coup d'oeil ! - Copyright ORBIFLY Décembre 2007 - Disclaimer

ORBIFLY MET'MAP TEAM :

Programmation & Développement : Alexandra Zaïnal
Sur une idée originale de : Baudouin d'Aumeries
Assistance à la programmation : Marc-Olivier Méhu
Soutien technique & logistique : Manuel Goepfert

Contact : metmap@orbifly.com




SOURCES & CREDITS :

   NOAA